sensor_id;sensor_type;location;lat;lon;timestamp;pressure;altitude;pressure_sealevel;temperature;humidity
63691;BME280;49837;57.280;27.070;2023-11-18T00:00:32;101008.2;;;-3.93;71.89
63691;BME280;49837;57.280;27.070;2023-11-18T00:01:33;101006.92;;;-3.97;71.96
63691;BME280;49837;57.280;27.070;2023-11-18T00:02:33;101006.34;;;-3.9;72.14
63691;BME280;49837;57.280;27.070;2023-11-18T00:03:34;101007.45;;;-3.86;71.66
63691;BME280;49837;57.280;27.070;2023-11-18T00:04:34;101010.16;;;-3.9;71.86
63691;BME280;49837;57.280;27.070;2023-11-18T00:05:34;101006.0;;;-3.96;71.67
63691;BME280;49837;57.280;27.070;2023-11-18T00:06:35;101010.77;;;-3.95;72.19
63691;BME280;49837;57.280;27.070;2023-11-18T00:07:35;101010.34;;;-3.97;72.25
63691;BME280;49837;57.280;27.070;2023-11-18T00:08:35;101007.72;;;-3.91;72.52
63691;BME280;49837;57.280;27.070;2023-11-18T00:09:36;101009.89;;;-3.88;72.8
63691;BME280;49837;57.280;27.070;2023-11-18T00:10:36;101012.25;;;-3.9;73.02
63691;BME280;49837;57.280;27.070;2023-11-18T00:11:37;101010.02;;;-3.97;72.92
63691;BME280;49837;57.280;27.070;2023-11-18T00:12:37;101007.89;;;-4.01;73.21
63691;BME280;49837;57.280;27.070;2023-11-18T00:13:38;101009.94;;;-3.97;73.57
63691;BME280;49837;57.280;27.070;2023-11-18T00:14:38;101016.34;;;-3.98;73.11
63691;BME280;49837;57.280;27.070;2023-11-18T00:15:38;101015.88;;;-4.01;72.71
63691;BME280;49837;57.280;27.070;2023-11-18T00:16:39;101015.89;;;-3.97;72.75
63691;BME280;49837;57.280;27.070;2023-11-18T00:17:39;101019.33;;;-3.93;72.59
63691;BME280;49837;57.280;27.070;2023-11-18T00:18:39;101021.86;;;-3.91;72.79
63691;BME280;49837;57.280;27.070;2023-11-18T00:19:40;101020.88;;;-3.93;72.54
63691;BME280;49837;57.280;27.070;2023-11-18T00:20:40;101024.66;;;-3.98;71.96
63691;BME280;49837;57.280;27.070;2023-11-18T00:21:41;101023.52;;;-4.05;71.52
63691;BME280;49837;57.280;27.070;2023-11-18T00:22:42;101029.23;;;-4.01;71.34
63691;BME280;49837;57.280;27.070;2023-11-18T00:23:41;101029.98;;;-3.99;71.58
63691;BME280;49837;57.280;27.070;2023-11-18T00:24:42;101032.89;;;-3.94;72.21
63691;BME280;49837;57.280;27.070;2023-11-18T00:25:42;101028.43;;;-3.89;72.72
63691;BME280;49837;57.280;27.070;2023-11-18T00:26:43;101033.81;;;-3.88;72.66
63691;BME280;49837;57.280;27.070;2023-11-18T00:27:43;101031.45;;;-3.88;72.08
63691;BME280;49837;57.280;27.070;2023-11-18T00:28:43;101033.64;;;-3.92;72.38
63691;BME280;49837;57.280;27.070;2023-11-18T00:29:44;101029.27;;;-3.95;72.44
63691;BME280;49837;57.280;27.070;2023-11-18T00:30:44;101026.98;;;-3.95;72.61
63691;BME280;49837;57.280;27.070;2023-11-18T00:31:45;101024.58;;;-3.94;71.51
63691;BME280;49837;57.280;27.070;2023-11-18T00:32:45;101025.02;;;-3.97;71.56
63691;BME280;49837;57.280;27.070;2023-11-18T00:33:45;101028.48;;;-3.96;71.81
63691;BME280;49837;57.280;27.070;2023-11-18T00:34:46;101024.17;;;-3.93;72.03
63691;BME280;49837;57.280;27.070;2023-11-18T00:35:46;101033.48;;;-3.91;72.11
63691;BME280;49837;57.280;27.070;2023-11-18T00:36:47;101028.66;;;-3.91;71.94
63691;BME280;49837;57.280;27.070;2023-11-18T00:37:47;101027.66;;;-3.89;72.05
63691;BME280;49837;57.280;27.070;2023-11-18T00:38:47;101032.39;;;-3.86;72.12
63691;BME280;49837;57.280;27.070;2023-11-18T00:39:48;101032.2;;;-3.83;72.98
63691;BME280;49837;57.280;27.070;2023-11-18T00:40:48;101028.0;;;-3.84;73.07
63691;BME280;49837;57.280;27.070;2023-11-18T00:41:49;101032.09;;;-3.88;73.16
63691;BME280;49837;57.280;27.070;2023-11-18T00:42:49;101033.11;;;-3.91;73.07
63691;BME280;49837;57.280;27.070;2023-11-18T00:43:49;101035.23;;;-3.9;72.69
63691;BME280;49837;57.280;27.070;2023-11-18T00:44:50;101040.48;;;-3.9;72.38
63691;BME280;49837;57.280;27.070;2023-11-18T00:45:51;101037.61;;;-3.86;72.5
63691;BME280;49837;57.280;27.070;2023-11-18T00:46:51;101041.02;;;-3.91;72.28
63691;BME280;49837;57.280;27.070;2023-11-18T00:47:51;101042.73;;;-3.9;72.72
63691;BME280;49837;57.280;27.070;2023-11-18T00:48:51;101041.3;;;-3.91;72.42
63691;BME280;49837;57.280;27.070;2023-11-18T00:49:52;101045.45;;;-3.93;72.55
63691;BME280;49837;57.280;27.070;2023-11-18T00:50:52;101042.98;;;-3.98;72.65
63691;BME280;49837;57.280;27.070;2023-11-18T00:51:53;101036.61;;;-4.0;72.33
63691;BME280;49837;57.280;27.070;2023-11-18T00:52:53;101033.89;;;-3.99;72.19
63691;BME280;49837;57.280;27.070;2023-11-18T00:53:54;101033.59;;;-3.95;72.65
63691;BME280;49837;57.280;27.070;2023-11-18T00:54:54;101033.59;;;-4.04;71.88
63691;BME280;49837;57.280;27.070;2023-11-18T00:55:54;101029.99;;;-4.05;71.11
63691;BME280;49837;57.280;27.070;2023-11-18T00:56:55;101028.68;;;-3.99;70.72
63691;BME280;49837;57.280;27.070;2023-11-18T00:57:55;101025.94;;;-4.0;70.94
63691;BME280;49837;57.280;27.070;2023-11-18T00:58:55;101028.89;;;-4.04;70.8
63691;BME280;49837;57.280;27.070;2023-11-18T00:59:56;101026.63;;;-4.01;71.44
63691;BME280;49837;57.280;27.070;2023-11-18T01:00:56;101028.31;;;-4.0;71.49
63691;BME280;49837;57.280;27.070;2023-11-18T01:01:57;101026.16;;;-3.97;71.19
63691;BME280;49837;57.280;27.070;2023-11-18T01:02:57;101028.02;;;-3.99;71.04
63691;BME280;49837;57.280;27.070;2023-11-18T01:03:58;101026.04;;;-3.96;71.84
63691;BME280;49837;57.280;27.070;2023-11-18T01:04:58;101025.92;;;-3.95;72.07
63691;BME280;49837;57.280;27.070;2023-11-18T01:05:58;101024.52;;;-3.91;72.25
63691;BME280;49837;57.280;27.070;2023-11-18T01:06:59;101025.61;;;-3.9;72.43
63691;BME280;49837;57.280;27.070;2023-11-18T01:07:59;101023.45;;;-3.92;71.94
63691;BME280;49837;57.280;27.070;2023-11-18T01:09:00;101022.74;;;-3.95;71.31
63691;BME280;49837;57.280;27.070;2023-11-18T01:10:00;101025.0;;;-3.92;71.57
63691;BME280;49837;57.280;27.070;2023-11-18T01:11:00;101022.39;;;-3.92;71.75
63691;BME280;49837;57.280;27.070;2023-11-18T01:12:01;101026.38;;;-4.01;71.85
63691;BME280;49837;57.280;27.070;2023-11-18T01:13:05;101030.84;;;-4.05;71.79
63691;BME280;49837;57.280;27.070;2023-11-18T01:14:05;101030.12;;;-4.01;72.32
63691;BME280;49837;57.280;27.070;2023-11-18T01:15:07;101031.4;;;-4.0;71.9
63691;BME280;49837;57.280;27.070;2023-11-18T01:16:07;101032.38;;;-3.92;72.04
63691;BME280;49837;57.280;27.070;2023-11-18T01:17:07;101031.6;;;-3.91;71.97
63691;BME280;49837;57.280;27.070;2023-11-18T01:18:07;101038.44;;;-3.84;71.71
63691;BME280;49837;57.280;27.070;2023-11-18T01:19:07;101035.11;;;-3.8;71.7
63691;BME280;49837;57.280;27.070;2023-11-18T01:20:09;101037.2;;;-3.86;71.69
63691;BME280;49837;57.280;27.070;2023-11-18T01:21:08;101034.95;;;-3.88;72.51
63691;BME280;49837;57.280;27.070;2023-11-18T01:22:09;101032.83;;;-3.9;72.01
63691;BME280;49837;57.280;27.070;2023-11-18T01:23:09;101039.56;;;-3.88;71.87
63691;BME280;49837;57.280;27.070;2023-11-18T01:24:09;101035.66;;;-3.86;71.5
63691;BME280;49837;57.280;27.070;2023-11-18T01:25:10;101038.73;;;-3.89;71.44
63691;BME280;49837;57.280;27.070;2023-11-18T01:26:10;101036.89;;;-3.92;70.75
63691;BME280;49837;57.280;27.070;2023-11-18T01:27:11;101036.23;;;-3.94;70.97
63691;BME280;49837;57.280;27.070;2023-11-18T01:28:11;101039.88;;;-3.92;71.39
63691;BME280;49837;57.280;27.070;2023-11-18T01:29:11;101043.82;;;-3.92;71.85
63691;BME280;49837;57.280;27.070;2023-11-18T01:30:13;101047.62;;;-3.9;72.1
63691;BME280;49837;57.280;27.070;2023-11-18T01:31:12;101044.16;;;-3.89;71.99
63691;BME280;49837;57.280;27.070;2023-11-18T01:32:13;101048.77;;;-3.9;71.56
63691;BME280;49837;57.280;27.070;2023-11-18T01:33:13;101046.88;;;-3.93;71.5
63691;BME280;49837;57.280;27.070;2023-11-18T01:34:14;101048.52;;;-3.9;72.18
63691;BME280;49837;57.280;27.070;2023-11-18T01:35:14;101046.16;;;-3.91;72.34
63691;BME280;49837;57.280;27.070;2023-11-18T01:36:14;101049.77;;;-3.99;71.58
63691;BME280;49837;57.280;27.070;2023-11-18T01:37:17;101045.01;;;-4.0;70.66
63691;BME280;49837;57.280;27.070;2023-11-18T01:38:15;101041.64;;;-3.97;70.72
63691;BME280;49837;57.280;27.070;2023-11-18T01:39:16;101042.61;;;-4.01;70.56
63691;BME280;49837;57.280;27.070;2023-11-18T01:40:16;101042.48;;;-4.0;70.32
63691;BME280;49837;57.280;27.070;2023-11-18T01:41:16;101035.97;;;-4.0;70.93
63691;BME280;49837;57.280;27.070;2023-11-18T01:42:17;101037.12;;;-3.96;71.49
63691;BME280;49837;57.280;27.070;2023-11-18T01:43:17;101038.89;;;-3.94;70.96
63691;BME280;49837;57.280;27.070;2023-11-18T01:44:18;101039.27;;;-3.99;70.1
63691;BME280;49837;57.280;27.070;2023-11-18T01:45:18;101041.36;;;-4.05;69.94
63691;BME280;49837;57.280;27.070;2023-11-18T01:46:19;101040.23;;;-4.03;70.36
63691;BME280;49837;57.280;27.070;2023-11-18T01:47:19;101037.8;;;-3.97;70.66
63691;BME280;49837;57.280;27.070;2023-11-18T01:48:20;101038.39;;;-3.97;70.27
63691;BME280;49837;57.280;27.070;2023-11-18T01:49:20;101038.84;;;-3.93;70.92
63691;BME280;49837;57.280;27.070;2023-11-18T01:50:20;101036.47;;;-3.96;70.62
63691;BME280;49837;57.280;27.070;2023-11-18T01:51:21;101037.25;;;-3.97;69.76
63691;BME280;49837;57.280;27.070;2023-11-18T01:52:21;101036.83;;;-3.97;69.99
63691;BME280;49837;57.280;27.070;2023-11-18T01:53:21;101037.48;;;-3.97;70.61
63691;BME280;49837;57.280;27.070;2023-11-18T01:54:23;101033.53;;;-3.98;70.44
63691;BME280;49837;57.280;27.070;2023-11-18T01:55:22;101037.35;;;-4.0;70.32
63691;BME280;49837;57.280;27.070;2023-11-18T01:56:23;101032.8;;;-3.98;70.82
63691;BME280;49837;57.280;27.070;2023-11-18T01:57:23;101035.41;;;-3.98;71.43
63691;BME280;49837;57.280;27.070;2023-11-18T01:58:23;101036.71;;;-3.98;71.37
63691;BME280;49837;57.280;27.070;2023-11-18T01:59:24;101035.88;;;-3.92;71.2
63691;BME280;49837;57.280;27.070;2023-11-18T02:00:24;101036.75;;;-3.97;71.33
63691;BME280;49837;57.280;27.070;2023-11-18T02:01:26;101035.48;;;-3.98;71.37
63691;BME280;49837;57.280;27.070;2023-11-18T02:02:26;101033.03;;;-4.0;71.65
63691;BME280;49837;57.280;27.070;2023-11-18T02:03:25;101036.46;;;-3.98;71.91
63691;BME280;49837;57.280;27.070;2023-11-18T02:04:26;101035.28;;;-3.97;71.24
63691;BME280;49837;57.280;27.070;2023-11-18T02:05:26;101028.62;;;-3.93;70.92
63691;BME280;49837;57.280;27.070;2023-11-18T02:06:27;101031.3;;;-3.95;70.86
63691;BME280;49837;57.280;27.070;2023-11-18T02:07:28;101028.89;;;-3.96;71.36
63691;BME280;49837;57.280;27.070;2023-11-18T02:08:27;101033.05;;;-3.93;71.68
63691;BME280;49837;57.280;27.070;2023-11-18T02:09:28;101031.2;;;-3.97;71.27
63691;BME280;49837;57.280;27.070;2023-11-18T02:10:28;101027.66;;;-3.98;70.88
63691;BME280;49837;57.280;27.070;2023-11-18T02:11:41;101028.08;;;-3.94;71.03
63691;BME280;49837;57.280;27.070;2023-11-18T02:12:55;101033.01;;;-3.97;71.62
63691;BME280;49837;57.280;27.070;2023-11-18T02:13:36;101031.33;;;-3.98;70.75
63691;BME280;49837;57.280;27.070;2023-11-18T02:14:39;101029.55;;;-4.04;71.11
63691;BME280;49837;57.280;27.070;2023-11-18T02:15:38;101028.08;;;-4.05;71.01
63691;BME280;49837;57.280;27.070;2023-11-18T02:16:38;101028.52;;;-3.99;71.35
63691;BME280;49837;57.280;27.070;2023-11-18T02:17:41;101024.55;;;-3.93;71.64
63691;BME280;49837;57.280;27.070;2023-11-18T02:18:42;101022.02;;;-3.95;71.33
63691;BME280;49837;57.280;27.070;2023-11-18T02:19:40;101023.38;;;-3.99;71.09
63691;BME280;49837;57.280;27.070;2023-11-18T02:20:40;101024.77;;;-3.99;71.67
63691;BME280;49837;57.280;27.070;2023-11-18T02:21:41;101022.09;;;-4.04;71.44
63691;BME280;49837;57.280;27.070;2023-11-18T02:22:44;101022.59;;;-4.02;71.43
63691;BME280;49837;57.280;27.070;2023-11-18T02:23:42;101022.98;;;-3.99;71.48
63691;BME280;49837;57.280;27.070;2023-11-18T02:24:42;101022.97;;;-3.97;71.21
63691;BME280;49837;57.280;27.070;2023-11-18T02:25:45;101026.91;;;-3.93;71.04
63691;BME280;49837;57.280;27.070;2023-11-18T02:26:43;101029.47;;;-3.94;71.06
63691;BME280;49837;57.280;27.070;2023-11-18T02:27:44;101025.07;;;-3.94;72.26
63691;BME280;49837;57.280;27.070;2023-11-18T02:28:44;101028.53;;;-3.96;72.14
63691;BME280;49837;57.280;27.070;2023-11-18T02:29:45;101029.6;;;-4.02;71.54
63691;BME280;49837;57.280;27.070;2023-11-18T02:30:45;101030.75;;;-4.08;71.62
63691;BME280;49837;57.280;27.070;2023-11-18T02:31:46;101029.36;;;-4.1;71.66
63691;BME280;49837;57.280;27.070;2023-11-18T02:36:09;101033.25;;;-3.96;70.49
63691;BME280;49837;57.280;27.070;2023-11-18T02:37:03;101037.66;;;-4.02;71.13
63691;BME280;49837;57.280;27.070;2023-11-18T02:38:04;101038.81;;;-4.02;71.83
63691;BME280;49837;57.280;27.070;2023-11-18T02:39:05;101036.83;;;-3.97;72.2
63691;BME280;49837;57.280;27.070;2023-11-18T02:40:04;101034.86;;;-3.92;72.12
63691;BME280;49837;57.280;27.070;2023-11-18T02:41:08;101035.7;;;-3.93;72.32
63691;BME280;49837;57.280;27.070;2023-11-18T02:42:08;101039.77;;;-3.96;72.38
63691;BME280;49837;57.280;27.070;2023-11-18T02:43:08;101036.43;;;-3.97;72.35
63691;BME280;49837;57.280;27.070;2023-11-18T02:44:09;101036.35;;;-3.96;71.38
63691;BME280;49837;57.280;27.070;2023-11-18T02:45:11;101041.02;;;-4.0;71.12
63691;BME280;49837;57.280;27.070;2023-11-18T02:46:10;101040.52;;;-4.03;70.44
63691;BME280;49837;57.280;27.070;2023-11-18T02:47:10;101035.27;;;-4.01;70.57
63691;BME280;49837;57.280;27.070;2023-11-18T02:48:10;101039.59;;;-3.99;70.81
63691;BME280;49837;57.280;27.070;2023-11-18T02:49:11;101040.73;;;-3.99;70.86
63691;BME280;49837;57.280;27.070;2023-11-18T02:50:11;101038.42;;;-3.98;71.04
63691;BME280;49837;57.280;27.070;2023-11-18T02:51:12;101041.67;;;-4.0;71.22
63691;BME280;49837;57.280;27.070;2023-11-18T02:52:12;101033.94;;;-4.07;70.06
63691;BME280;49837;57.280;27.070;2023-11-18T02:53:12;101038.55;;;-4.04;69.98
63691;BME280;49837;57.280;27.070;2023-11-18T02:54:13;101036.73;;;-4.01;69.42
63691;BME280;49837;57.280;27.070;2023-11-18T02:55:14;101038.45;;;-4.01;69.86
63691;BME280;49837;57.280;27.070;2023-11-18T02:56:14;101037.2;;;-4.05;69.21
63691;BME280;49837;57.280;27.070;2023-11-18T02:57:14;101036.06;;;-4.05;69.01
63691;BME280;49837;57.280;27.070;2023-11-18T02:58:14;101035.27;;;-4.08;68.75
63691;BME280;49837;57.280;27.070;2023-11-18T02:59:16;101037.08;;;-4.07;69.12
63691;BME280;49837;57.280;27.070;2023-11-18T03:00:16;101039.55;;;-4.08;69.4
63691;BME280;49837;57.280;27.070;2023-11-18T03:01:16;101039.59;;;-4.09;69.68
63691;BME280;49837;57.280;27.070;2023-11-18T03:02:16;101036.31;;;-4.03;70.06
63691;BME280;49837;57.280;27.070;2023-11-18T03:03:17;101041.56;;;-3.96;70.54
63691;BME280;49837;57.280;27.070;2023-11-18T03:04:17;101040.75;;;-3.95;70.42
63691;BME280;49837;57.280;27.070;2023-11-18T03:05:18;101040.12;;;-3.98;70.27
63691;BME280;49837;57.280;27.070;2023-11-18T03:06:18;101038.36;;;-4.01;69.94
63691;BME280;49837;57.280;27.070;2023-11-18T03:07:18;101039.27;;;-3.97;70.3
63691;BME280;49837;57.280;27.070;2023-11-18T03:08:19;101040.12;;;-3.9;70.36
63691;BME280;49837;57.280;27.070;2023-11-18T03:09:19;101044.78;;;-3.88;70.43
63691;BME280;49837;57.280;27.070;2023-11-18T03:10:20;101041.3;;;-3.9;69.92
63691;BME280;49837;57.280;27.070;2023-11-18T03:11:20;101042.72;;;-3.92;70.0
63691;BME280;49837;57.280;27.070;2023-11-18T03:12:20;101040.62;;;-3.98;70.26
63691;BME280;49837;57.280;27.070;2023-11-18T03:13:22;101040.73;;;-3.99;70.87
63691;BME280;49837;57.280;27.070;2023-11-18T03:14:22;101037.43;;;-4.0;70.77
63691;BME280;49837;57.280;27.070;2023-11-18T03:15:23;101036.95;;;-3.98;71.39
63691;BME280;49837;57.280;27.070;2023-11-18T03:16:23;101033.41;;;-3.95;71.18
63691;BME280;49837;57.280;27.070;2023-11-18T03:17:23;101031.45;;;-3.97;71.45
63691;BME280;49837;57.280;27.070;2023-11-18T03:18:24;101027.52;;;-4.02;71.34
63691;BME280;49837;57.280;27.070;2023-11-18T03:19:24;101035.8;;;-4.02;71.43
63691;BME280;49837;57.280;27.070;2023-11-18T03:20:25;101032.58;;;-4.01;71.6
63691;BME280;49837;57.280;27.070;2023-11-18T03:21:25;101031.91;;;-3.96;71.28
63691;BME280;49837;57.280;27.070;2023-11-18T03:22:26;101033.2;;;-3.9;71.24
63691;BME280;49837;57.280;27.070;2023-11-18T03:23:26;101030.45;;;-3.92;71.38
63691;BME280;49837;57.280;27.070;2023-11-18T03:24:26;101031.11;;;-3.93;72.04
63691;BME280;49837;57.280;27.070;2023-11-18T03:25:27;101032.62;;;-3.98;72.46
63691;BME280;49837;57.280;27.070;2023-11-18T03:26:27;101031.58;;;-3.96;72.58
63691;BME280;49837;57.280;27.070;2023-11-18T03:27:28;101026.36;;;-3.96;72.7
63691;BME280;49837;57.280;27.070;2023-11-18T03:28:28;101028.12;;;-3.97;72.24
63691;BME280;49837;57.280;27.070;2023-11-18T03:29:28;101028.14;;;-3.98;72.1
63691;BME280;49837;57.280;27.070;2023-11-18T03:30:29;101026.5;;;-3.94;72.19
63691;BME280;49837;57.280;27.070;2023-11-18T03:31:29;101026.92;;;-3.98;72.29
63691;BME280;49837;57.280;27.070;2023-11-18T03:32:30;101025.73;;;-4.01;72.46
63691;BME280;49837;57.280;27.070;2023-11-18T03:33:30;101026.75;;;-4.02;72.87
63691;BME280;49837;57.280;27.070;2023-11-18T03:34:30;101024.04;;;-3.97;72.79
63691;BME280;49837;57.280;27.070;2023-11-18T03:35:31;101026.62;;;-3.93;71.94
63691;BME280;49837;57.280;27.070;2023-11-18T03:36:31;101028.58;;;-3.93;71.83
63691;BME280;49837;57.280;27.070;2023-11-18T03:37:32;101029.27;;;-3.93;72.03
63691;BME280;49837;57.280;27.070;2023-11-18T03:38:33;101028.05;;;-3.93;72.2
63691;BME280;49837;57.280;27.070;2023-11-18T03:39:32;101028.05;;;-3.93;72.67
63691;BME280;49837;57.280;27.070;2023-11-18T03:40:33;101027.45;;;-3.99;71.83
63691;BME280;49837;57.280;27.070;2023-11-18T03:41:33;101029.33;;;-3.99;72.47
63691;BME280;49837;57.280;27.070;2023-11-18T03:42:34;101030.89;;;-4.04;72.01
63691;BME280;49837;57.280;27.070;2023-11-18T03:43:34;101027.98;;;-4.09;72.43
63691;BME280;49837;57.280;27.070;2023-11-18T03:44:34;101030.28;;;-4.13;73.58
63691;BME280;49837;57.280;27.070;2023-11-18T03:45:35;101032.25;;;-4.12;73.27
63691;BME280;49837;57.280;27.070;2023-11-18T03:46:35;101036.31;;;-4.12;73.22
63691;BME280;49837;57.280;27.070;2023-11-18T03:47:36;101032.41;;;-4.03;72.61
63691;BME280;49837;57.280;27.070;2023-11-18T03:48:36;101033.39;;;-4.01;71.52
63691;BME280;49837;57.280;27.070;2023-11-18T03:49:36;101031.5;;;-4.14;70.6
63691;BME280;49837;57.280;27.070;2023-11-18T03:50:37;101031.74;;;-4.14;70.63
63691;BME280;49837;57.280;27.070;2023-11-18T03:51:37;101033.96;;;-4.19;70.73
63691;BME280;49837;57.280;27.070;2023-11-18T03:52:38;101030.23;;;-4.16;70.47
63691;BME280;49837;57.280;27.070;2023-11-18T03:53:38;101031.8;;;-4.21;70.86
63691;BME280;49837;57.280;27.070;2023-11-18T03:54:39;101030.11;;;-4.22;70.8
63691;BME280;49837;57.280;27.070;2023-11-18T03:55:39;101027.02;;;-4.15;70.78
63691;BME280;49837;57.280;27.070;2023-11-18T03:56:39;101024.42;;;-4.13;70.74
63691;BME280;49837;57.280;27.070;2023-11-18T03:57:40;101028.27;;;-4.1;70.98
63691;BME280;49837;57.280;27.070;2023-11-18T03:58:40;101025.95;;;-4.07;70.8
63691;BME280;49837;57.280;27.070;2023-11-18T03:59:41;101029.05;;;-4.08;70.67
63691;BME280;49837;57.280;27.070;2023-11-18T04:00:41;101029.49;;;-4.08;70.87
63691;BME280;49837;57.280;27.070;2023-11-18T04:01:41;101029.99;;;-4.05;71.25
63691;BME280;49837;57.280;27.070;2023-11-18T04:02:42;101030.45;;;-4.01;71.57
63691;BME280;49837;57.280;27.070;2023-11-18T04:03:42;101028.05;;;-4.0;71.23
63691;BME280;49837;57.280;27.070;2023-11-18T04:04:43;101025.36;;;-4.02;70.88
63691;BME280;49837;57.280;27.070;2023-11-18T04:05:44;101023.53;;;-3.99;70.83
63691;BME280;49837;57.280;27.070;2023-11-18T04:06:44;101024.45;;;-3.96;69.93
63691;BME280;49837;57.280;27.070;2023-11-18T04:07:44;101021.58;;;-3.92;69.88
63691;BME280;49837;57.280;27.070;2023-11-18T04:08:45;101013.99;;;-3.92;69.51
63691;BME280;49837;57.280;27.070;2023-11-18T04:09:45;101019.2;;;-3.96;69.44
63691;BME280;49837;57.280;27.070;2023-11-18T04:10:45;101019.05;;;-3.91;69.49
63691;BME280;49837;57.280;27.070;2023-11-18T04:11:46;101016.31;;;-4.02;69.29
63691;BME280;49837;57.280;27.070;2023-11-18T04:12:46;101017.57;;;-4.05;69.41
63691;BME280;49837;57.280;27.070;2023-11-18T04:13:46;101020.26;;;-4.05;69.58
63691;BME280;49837;57.280;27.070;2023-11-18T04:14:47;101014.44;;;-4.04;70.29
63691;BME280;49837;57.280;27.070;2023-11-18T04:15:47;101019.0;;;-4.03;70.58
63691;BME280;49837;57.280;27.070;2023-11-18T04:16:48;101013.47;;;-4.04;70.34
63691;BME280;49837;57.280;27.070;2023-11-18T04:17:48;101012.37;;;-4.03;70.99
63691;BME280;49837;57.280;27.070;2023-11-18T04:18:48;101013.55;;;-4.0;71.08
63691;BME280;49837;57.280;27.070;2023-11-18T04:19:49;101016.11;;;-3.93;71.77
63691;BME280;49837;57.280;27.070;2023-11-18T04:20:49;101014.41;;;-3.91;71.88
63691;BME280;49837;57.280;27.070;2023-11-18T04:21:50;101014.38;;;-3.89;71.78
63691;BME280;49837;57.280;27.070;2023-11-18T04:22:50;101013.95;;;-3.91;71.04
63691;BME280;49837;57.280;27.070;2023-11-18T04:23:50;101013.8;;;-3.9;71.04
63691;BME280;49837;57.280;27.070;2023-11-18T04:24:51;101012.16;;;-3.92;71.25
63691;BME280;49837;57.280;27.070;2023-11-18T04:25:51;101014.58;;;-3.97;71.02
63691;BME280;49837;57.280;27.070;2023-11-18T04:26:52;101010.81;;;-4.03;70.64
63691;BME280;49837;57.280;27.070;2023-11-18T04:27:52;101015.4;;;-4.07;71.07
63691;BME280;49837;57.280;27.070;2023-11-18T04:28:53;101012.02;;;-4.08;71.36
63691;BME280;49837;57.280;27.070;2023-11-18T04:29:53;101005.3;;;-4.07;71.37
63691;BME280;49837;57.280;27.070;2023-11-18T04:30:53;101009.05;;;-4.06;72.19
63691;BME280;49837;57.280;27.070;2023-11-18T04:31:54;101007.06;;;-4.05;71.91
63691;BME280;49837;57.280;27.070;2023-11-18T04:32:54;101007.77;;;-4.09;72.04
63691;BME280;49837;57.280;27.070;2023-11-18T04:33:55;101006.38;;;-4.14;72.47
63691;BME280;49837;57.280;27.070;2023-11-18T04:34:55;101011.72;;;-4.12;72.36
63691;BME280;49837;57.280;27.070;2023-11-18T04:35:55;101007.28;;;-4.1;72.71
63691;BME280;49837;57.280;27.070;2023-11-18T04:36:56;101008.42;;;-4.09;73.17
63691;BME280;49837;57.280;27.070;2023-11-18T04:37:56;101005.34;;;-4.15;72.14
63691;BME280;49837;57.280;27.070;2023-11-18T04:38:57;101004.41;;;-4.14;71.93
63691;BME280;49837;57.280;27.070;2023-11-18T04:39:57;101013.27;;;-4.11;71.79
63691;BME280;49837;57.280;27.070;2023-11-18T04:40:57;101005.0;;;-4.08;71.8
63691;BME280;49837;57.280;27.070;2023-11-18T04:41:58;101006.08;;;-4.04;72.02
63691;BME280;49837;57.280;27.070;2023-11-18T04:42:58;101005.03;;;-4.01;72.6
63691;BME280;49837;57.280;27.070;2023-11-18T04:43:59;101007.19;;;-4.04;72.86
63691;BME280;49837;57.280;27.070;2023-11-18T04:44:59;101005.45;;;-4.01;73.41
63691;BME280;49837;57.280;27.070;2023-11-18T04:46:00;100999.95;;;-4.0;73.59
63691;BME280;49837;57.280;27.070;2023-11-18T04:47:00;101001.8;;;-4.05;73.23
63691;BME280;49837;57.280;27.070;2023-11-18T04:48:00;100999.73;;;-4.04;73.52
63691;BME280;49837;57.280;27.070;2023-11-18T04:49:01;100999.0;;;-4.03;73.47
63691;BME280;49837;57.280;27.070;2023-11-18T04:50:01;100996.09;;;-4.05;73.04
63691;BME280;49837;57.280;27.070;2023-11-18T04:51:02;101000.59;;;-4.02;73.12
63691;BME280;49837;57.280;27.070;2023-11-18T04:52:02;100997.66;;;-4.02;73.23
63691;BME280;49837;57.280;27.070;2023-11-18T04:53:02;100998.15;;;-4.02;72.77
63691;BME280;49837;57.280;27.070;2023-11-18T04:54:03;100998.03;;;-4.01;72.47
63691;BME280;49837;57.280;27.070;2023-11-18T04:55:04;100996.72;;;-4.01;72.67
63691;BME280;49837;57.280;27.070;2023-11-18T04:56:04;101000.28;;;-3.98;72.38
63691;BME280;49837;57.280;27.070;2023-11-18T04:57:04;101002.16;;;-3.98;72.25
63691;BME280;49837;57.280;27.070;2023-11-18T04:58:05;100999.59;;;-3.97;72.47
63691;BME280;49837;57.280;27.070;2023-11-18T04:59:05;101006.4;;;-3.96;72.33
63691;BME280;49837;57.280;27.070;2023-11-18T05:00:06;101006.22;;;-4.02;71.35
63691;BME280;49837;57.280;27.070;2023-11-18T05:01:06;101003.07;;;-4.03;71.43
63691;BME280;49837;57.280;27.070;2023-11-18T05:02:06;101005.67;;;-4.05;71.49
63691;BME280;49837;57.280;27.070;2023-11-18T05:03:07;101008.03;;;-4.05;71.56
63691;BME280;49837;57.280;27.070;2023-11-18T05:04:07;101002.12;;;-4.06;71.87
63691;BME280;49837;57.280;27.070;2023-11-18T05:05:08;101002.03;;;-4.11;71.39
63691;BME280;49837;57.280;27.070;2023-11-18T05:06:08;101000.11;;;-4.12;71.8
63691;BME280;49837;57.280;27.070;2023-11-18T05:07:08;100998.93;;;-4.09;72.18
63691;BME280;49837;57.280;27.070;2023-11-18T05:08:18;100999.13;;;-4.1;72.17
63691;BME280;49837;57.280;27.070;2023-11-18T05:09:11;100999.05;;;-4.1;72.7
63691;BME280;49837;57.280;27.070;2023-11-18T05:10:11;100998.27;;;-4.11;72.33
63691;BME280;49837;57.280;27.070;2023-11-18T05:11:11;101001.55;;;-4.07;71.94
63691;BME280;49837;57.280;27.070;2023-11-18T05:12:12;101002.19;;;-4.09;72.02
63691;BME280;49837;57.280;27.070;2023-11-18T05:13:12;100997.84;;;-4.06;72.9
63691;BME280;49837;57.280;27.070;2023-11-18T05:14:13;101004.42;;;-4.11;72.27
63691;BME280;49837;57.280;27.070;2023-11-18T05:15:13;101004.81;;;-4.16;72.57
63691;BME280;49837;57.280;27.070;2023-11-18T05:16:14;101003.31;;;-4.14;72.55